首页
METAR-TAF:

METAR-TAF

机场 :

Northeast Philadelphia Airport

費城, 宾夕法尼亚州, 美国

纬度: 40-04-44N, 经度: 075-00-49W, 海拔: 36米

当前天气观测

该预报发布于39分钟前的08:54 UTC
风速8节,风向西北
温度 -4°C
湿度 42%
气压 1026 hPa
能見度: 16.1公里
天空无云

METAR: KPNE 130854Z 31008KT 10SM CLR M04/M15 A3029 RMK AO2 SLP257 T10441150 51013 $

时间: 04:33 (09:33 UTC)

预报

该预报发布于4小时和13分钟前的05:20 UTC
预报有效从13日的 06点(UTC)到 14日的 06点(UTC)
风速8节,风向北转西北
能見度: 10公里
天空无云
从 13日的 1400点(UTC)
风速12节,风向西北,有时为18节阵风
能見度: 10公里
天空无云
从 13日的 2000点(UTC)
风速8节,风向北转西北
能見度: 10公里
天空无云
从 14日的 0000点(UTC)
风速3节,风向多变
能見度: 10公里
少量云层高于25000英尺

TAF: KPNE 130520Z 1306/1406 33008KT P6SM SKC FM131400 32012G18KT P6SM SKC FM132000 34008KT P6SM SKC FM140000 VRB03KT P6SM FEW250

超过4000个机场的气象观测和天气预报(METAR&TAF报告)。

可查询的气象台以黄色和红色小点在地图上表示。

将鼠标移到小点上方,可查看气象台名称。

然后点击查看天气观测和预报。

如需切换地图:点击带黑十字的绿色按钮放大地图;点击带横线的绿色按钮缩小地图;或者点击绿色箭头查看邻近地区的地图。


METAR-TAF: